createdAt,value
2023-01-09T00:01:16.506Z,99136.53
2023-01-09T00:06:20.650Z,99131.63
2023-01-09T00:11:23.458Z,99126.00
2023-01-09T00:16:26.887Z,99130.25
2023-01-09T00:21:30.798Z,99132.50
2023-01-09T00:26:33.462Z,99141.91
2023-01-09T00:31:37.977Z,99126.06
2023-01-09T00:36:41.960Z,99129.56
2023-01-09T00:41:48.805Z,99142.06
2023-01-09T00:46:56.444Z,99155.22
2023-01-09T00:52:00.921Z,99153.97
2023-01-09T00:57:03.572Z,99162.00
2023-01-09T01:02:06.785Z,99180.56
2023-01-09T01:07:28.317Z,99186.63
2023-01-09T01:12:31.293Z,99196.28
2023-01-09T01:17:35.522Z,99189.53
2023-01-09T01:22:42.171Z,99175.19
2023-01-09T01:27:45.776Z,99198.16
2023-01-09T01:32:48.353Z,99202.84
2023-01-09T01:37:54.477Z,99191.28
2023-01-09T01:42:58.813Z,99165.84
2023-01-09T01:48:04.989Z,99203.50
2023-01-09T01:53:14.892Z,99215.03
2023-01-09T01:58:17.873Z,99217.00
2023-01-09T02:03:25.701Z,99210.84
2023-01-09T02:15:17.533Z,99224.03
2023-01-09T02:20:43.820Z,99229.41
2023-01-09T02:26:13.667Z,99226.75
2023-01-09T02:31:22.894Z,99227.78
2023-01-09T02:36:31.975Z,99231.72
2023-01-09T02:41:39.292Z,99243.25
2023-01-09T02:46:43.394Z,99247.09
2023-01-09T02:51:52.852Z,99251.84
2023-01-09T02:57:16.060Z,99261.44
2023-01-09T03:02:36.276Z,99251.84
2023-01-09T03:07:44.626Z,99252.78
2023-01-09T03:12:49.431Z,99250.00
2023-01-09T03:17:53.588Z,99247.13
2023-01-09T03:22:57.943Z,99245.56
2023-01-09T03:28:02.594Z,99250.22
2023-01-09T03:33:06.566Z,99258.47
2023-01-09T03:38:09.553Z,99267.69
2023-01-09T03:43:12.123Z,99269.00
2023-01-09T03:48:16.299Z,99264.44
2023-01-09T03:53:19.607Z,99271.28
2023-01-09T03:58:23.217Z,99287.47
2023-01-09T04:03:27.244Z,99279.44
2023-01-09T04:08:30.680Z,99283.75
2023-01-09T04:13:33.289Z,99275.16
2023-01-09T04:18:37.250Z,99283.28
2023-01-09T04:23:39.864Z,99284.38
2023-01-09T04:28:42.426Z,99283.13
2023-01-09T04:33:47.350Z,99297.72
2023-01-09T04:38:49.975Z,99308.25
2023-01-09T04:43:52.545Z,99300.25
2023-01-09T04:48:56.462Z,99294.97
2023-01-09T04:53:59.448Z,99301.47
2023-01-09T04:59:02.096Z,99309.47
2023-01-09T05:04:06.966Z,99307.47
2023-01-09T05:09:09.976Z,99315.97
2023-01-09T05:14:12.761Z,99309.97
2023-01-09T05:19:16.684Z,99306.25
2023-01-09T05:24:19.403Z,99328.50
2023-01-09T05:29:23.567Z,99331.13
2023-01-09T05:34:27.501Z,99334.97
2023-01-09T05:39:30.064Z,99333.31
2023-01-09T05:44:32.764Z,99278.97
2023-01-09T05:49:36.710Z,99289.72
2023-01-09T05:54:39.277Z,99323.44
2023-01-09T05:59:41.871Z,99281.59
2023-01-09T06:04:46.163Z,99331.22
2023-01-09T06:09:48.918Z,99296.28
2023-01-09T06:14:51.523Z,99336.09
2023-01-09T06:28:21.467Z,99325.97
2023-01-09T06:49:32.230Z,99328.13
2023-01-09T06:56:27.502Z,99326.84
2023-01-09T07:08:47.895Z,99327.38
2023-01-09T07:13:53.809Z,99317.31
2023-01-09T07:18:56.449Z,99316.69
2023-01-09T07:23:59.689Z,99323.59
2023-01-09T07:29:03.972Z,99320.22
2023-01-09T07:34:06.700Z,99321.28
2023-01-09T07:39:09.439Z,99338.13
2023-01-09T07:44:14.077Z,99302.34
2023-01-09T07:49:16.651Z,99333.31
2023-01-09T07:54:19.215Z,99342.31
2023-01-09T07:59:23.401Z,99338.44
2023-01-09T08:04:25.950Z,99344.34
2023-01-09T08:09:28.555Z,99352.19
2023-01-09T08:14:32.463Z,99350.84
2023-01-09T08:19:35.024Z,99370.75
2023-01-09T08:24:37.623Z,99365.34
2023-01-09T08:29:41.540Z,99356.88
2023-01-09T08:34:44.145Z,99377.22
2023-01-09T08:39:48.612Z,99376.59
2023-01-09T08:45:10.467Z,99388.81
2023-01-09T08:50:13.207Z,99387.16
2023-01-09T08:55:15.951Z,99378.75
2023-01-09T09:00:22.945Z,99405.34
2023-01-09T09:05:26.817Z,99410.38
2023-01-09T09:10:30.646Z,99402.88
2023-01-09T09:15:37.970Z,99413.88
2023-01-09T09:20:40.601Z,99426.75
2023-01-09T09:25:43.826Z,99420.41
2023-01-09T09:30:48.132Z,99425.63
2023-01-09T09:35:50.753Z,99435.44
2023-01-09T09:41:29.314Z,99434.47
2023-01-09T09:46:42.333Z,99437.66
2023-01-09T09:51:57.299Z,99456.28
2023-01-09T09:57:03.669Z,99445.88
2023-01-09T10:02:24.667Z,99467.28
2023-01-09T10:07:34.023Z,99437.97
2023-01-09T10:12:43.460Z,99486.59
2023-01-09T10:18:00.202Z,99490.28
2023-01-09T10:23:13.682Z,99495.50
2023-01-09T10:28:38.441Z,99501.94
2023-01-09T10:33:53.497Z,99496.31
2023-01-09T10:39:01.893Z,99490.44
2023-01-09T10:44:15.051Z,99507.16
2023-01-09T10:49:19.594Z,99514.97
2023-01-09T10:54:23.729Z,99484.03
2023-01-09T10:59:26.967Z,99505.66
2023-01-09T11:04:33.925Z,99524.94
2023-01-09T11:09:58.196Z,99540.94
2023-01-09T11:15:28.577Z,99550.16
2023-01-09T11:20:34.422Z,99548.28
2023-01-09T11:25:37.031Z,99559.47
2023-01-09T11:30:53.481Z,99561.31
2023-01-09T11:36:00.582Z,99553.00
2023-01-09T11:41:06.579Z,99570.53
2023-01-09T11:46:11.650Z,99574.25
2023-01-09T11:51:23.955Z,99563.94
2023-01-09T11:56:26.863Z,99585.91
2023-01-09T12:01:47.081Z,99594.16
2023-01-09T12:07:04.986Z,99579.06
2023-01-09T12:12:22.032Z,99587.56
2023-01-09T12:17:54.826Z,99510.59
2023-01-09T12:23:12.629Z,99609.84
2023-01-09T12:28:39.898Z,99612.00
2023-01-09T12:33:49.717Z,99619.22
2023-01-09T12:38:56.496Z,99626.19
2023-01-09T12:44:24.267Z,99616.47
2023-01-09T12:49:36.056Z,99628.31
2023-01-09T12:54:44.649Z,99632.34
2023-01-09T12:59:51.340Z,99633.09
2023-01-09T13:04:58.780Z,99634.66
2023-01-09T13:10:08.606Z,99602.47
2023-01-09T13:15:25.829Z,99642.09
2023-01-09T13:20:34.832Z,99651.50
2023-01-09T13:25:44.613Z,99662.81
2023-01-09T13:31:00.363Z,99673.38
2023-01-09T13:36:03.868Z,99679.19
2023-01-09T13:41:30.351Z,99688.16
2023-01-09T13:46:39.759Z,99694.31
2023-01-09T13:51:59.098Z,99700.72
2023-01-09T13:57:29.361Z,99721.78
2023-01-09T14:02:56.672Z,99729.63
2023-01-09T14:08:04.885Z,99736.97
2023-01-09T14:13:14.844Z,99746.63
2023-01-09T14:18:20.526Z,99755.50
2023-01-09T14:23:49.767Z,99760.22
2023-01-09T14:28:49.555Z,99785.47
2023-01-09T14:34:23.171Z,99786.16
2023-01-09T14:39:36.499Z,99802.50
2023-01-09T14:44:47.946Z,99813.69
2023-01-09T14:49:56.023Z,99825.22
2023-01-09T14:55:02.459Z,99837.50
2023-01-09T15:00:18.710Z,99857.72
2023-01-09T15:05:24.556Z,99860.50
2023-01-09T15:10:31.594Z,99869.56
2023-01-09T15:15:36.532Z,99896.97
2023-01-09T15:20:39.145Z,99898.25
2023-01-09T15:25:45.984Z,99914.41
2023-01-09T15:30:55.344Z,99917.66
2023-01-09T15:36:02.397Z,99937.09
2023-01-09T15:41:12.011Z,99937.09
2023-01-09T15:46:16.891Z,99949.63
2023-01-09T15:51:19.871Z,99958.09
2023-01-09T15:56:25.217Z,99977.09
2023-01-09T16:01:32.363Z,99989.03
2023-01-09T16:06:37.155Z,99982.50
2023-01-09T16:11:46.458Z,99909.31
2023-01-09T16:16:51.053Z,100022.25
2023-01-09T16:21:58.422Z,100012.97
2023-01-09T16:27:26.044Z,100036.88
2023-01-09T16:32:31.027Z,100048.94
2023-01-09T16:37:33.644Z,100055.03
2023-01-09T16:42:55.057Z,100004.75
2023-01-09T16:47:58.104Z,100073.47
2023-01-09T16:53:03.901Z,100089.59
2023-01-09T16:58:10.269Z,100098.69
2023-01-09T17:03:14.683Z,100102.81
2023-01-09T17:08:22.272Z,100078.00
2023-01-09T17:13:26.884Z,100118.94
2023-01-09T17:18:29.685Z,100130.03
2023-01-09T17:23:32.536Z,100128.22
2023-01-09T17:28:37.214Z,100139.38
2023-01-09T17:33:41.118Z,100154.78
2023-01-09T17:38:43.737Z,100154.28
2023-01-09T17:43:47.686Z,100187.75
2023-01-09T17:48:50.744Z,100139.41
2023-01-09T17:53:53.866Z,100124.94
2023-01-09T17:58:57.861Z,100095.88
2023-01-09T18:04:00.427Z,100188.28
2023-01-09T18:09:03.352Z,100193.22
2023-01-09T18:14:07.303Z,100204.31
2023-01-09T18:19:10.111Z,100218.59
2023-01-09T18:24:12.788Z,100227.38
2023-01-09T18:29:16.695Z,100244.75
2023-01-09T18:34:19.695Z,100248.16
2023-01-09T18:39:23.023Z,100250.84
2023-01-09T18:44:26.969Z,100269.41
2023-01-09T18:49:29.549Z,100264.78
2023-01-09T18:54:32.119Z,100283.91
2023-01-09T18:59:35.989Z,100292.75
2023-01-09T19:04:38.538Z,100307.09
2023-01-09T19:09:41.177Z,100308.94
2023-01-09T19:14:45.484Z,100308.38
2023-01-09T19:19:49.093Z,100336.69
2023-01-09T19:24:52.222Z,100341.97
2023-01-09T19:29:56.151Z,100355.97
2023-01-09T19:34:58.746Z,100359.91
2023-01-09T19:40:01.317Z,100378.00
2023-01-09T19:45:06.175Z,100384.22
2023-01-09T19:50:09.925Z,100397.59
2023-01-09T19:55:14.496Z,100412.91
2023-01-09T20:00:19.091Z,100410.53
2023-01-09T20:05:22.149Z,100420.72
2023-01-09T20:10:24.943Z,100432.00
2023-01-09T20:15:28.883Z,100449.44
2023-01-09T20:20:31.904Z,100446.50
2023-01-09T20:25:35.279Z,100465.00
2023-01-09T20:30:42.590Z,100471.75
2023-01-09T20:35:45.295Z,100476.28
2023-01-09T20:40:47.927Z,100487.38
2023-01-09T20:45:52.326Z,100510.75
2023-01-09T20:50:55.261Z,100518.06
2023-01-09T20:56:00.553Z,100531.53
2023-01-09T21:01:08.015Z,100541.88
2023-01-09T21:06:12.462Z,100558.19
2023-01-09T21:11:15.975Z,100560.06
2023-01-09T21:16:24.269Z,100572.31
2023-01-09T21:21:27.492Z,100542.16
2023-01-09T21:26:31.845Z,100603.66
2023-01-09T21:31:36.129Z,100614.31
2023-01-09T21:36:38.763Z,100616.59
2023-01-09T21:41:58.965Z,100627.06
2023-01-09T21:47:03.822Z,100637.97
2023-01-09T21:52:06.612Z,100651.69
2023-01-09T21:57:09.947Z,100651.41
2023-01-09T22:02:15.888Z,100657.91
2023-01-09T22:07:19.039Z,100657.16
2023-01-09T22:12:21.749Z,100653.75
2023-01-09T22:17:25.859Z,100689.19
2023-01-09T22:22:28.404Z,100690.72
2023-01-09T22:27:33.995Z,100700.63
2023-01-09T22:32:38.978Z,100704.81
2023-01-09T22:37:41.576Z,100703.22
2023-01-09T22:42:44.192Z,100735.88
2023-01-09T22:47:50.011Z,100747.19
2023-01-09T22:52:53.256Z,100750.50
2023-01-09T22:57:55.826Z,100757.38
2023-01-09T23:02:59.817Z,100769.44
2023-01-09T23:08:02.411Z,100771.34
2023-01-09T23:13:05.167Z,100778.97
2023-01-09T23:18:10.120Z,100806.47
2023-01-09T23:23:12.750Z,100800.75
2023-01-09T23:28:15.344Z,100831.16
2023-01-09T23:33:21.006Z,100833.09
2023-01-09T23:38:23.666Z,100822.63
2023-01-09T23:43:27.022Z,100867.03
2023-01-09T23:48:30.939Z,100878.38
2023-01-09T23:53:33.714Z,100878.56
2023-01-09T23:58:36.913Z,100915.03
